Sonic — XPE2388 — position and weather

sailwx.info

Track history (hours):
 
Tides and Currents Weather Stations Pressure Air Temp Water Temp Dewpoint Dewpoint Depression Visibility Wind Speed Wind Dir Waves Ship Positions

Sonic

Last reported at 2018-Mar-29 15:28 UTC. Time now 2018-May-21 01:06 UTC.
Position N 14°17' W 060°57'.
Warning: this ship's position is 52 days out of date.

Length 12 m.

Type: Sailing vessel. MMSI: 219014249.

Date/timePositionNaut miles runAvg speedWind from/ knotsBaromVisibWave heightAir tempDewpointWater temp
2018-Mar-29 15:28N 14°17' W 060°57'3 5.3
2018-Mar-29 14:58N 14°20' W 060°56'3 5.7
2018-Mar-29 14:30N 14°22' W 060°55'3 5.4
2018-Mar-29 14:00N 14°25' W 060°55'3 4.9
2018-Mar-29 13:29N 14°27' W 060°53'2 2.5
2018-Mar-29 12:53N 14°28' W 060°52'0 0.2
2018-Mar-29 12:30N 14°28' W 060°52'0 0.0
2018-Mar-29 12:00N 14°28' W 060°52'  
2018-Mar-26 18:48N 14°28' W 060°52'0 1.0
2018-Mar-26 18:29N 14°28' W 060°52'2 3.2
2018-Mar-26 18:00N 14°27' W 060°54'2 3.0
2018-Mar-26 17:30N 14°27' W 060°55'1 2.9
2018-Mar-26 17:00N 14°26' W 060°57'2 2.9
2018-Mar-26 16:29N 14°27' W 060°58'  
Track history (hours):
 
Tides and Currents Weather Stations Pressure Air Temp Water Temp Dewpoint Dewpoint Depression Visibility Wind Speed Wind Dir Waves Ship Positions

Sonic

Last reported at 2018-Mar-29 15:28 UTC. Time now 2018-May-21 01:06 UTC.
Position N 14°17' W 060°57'.
Warning: this ship's position is 52 days out of date.

Length 12 m.

Type: Sailing vessel. MMSI: 219014249.

Date/timePositionNaut miles runAvg speedWind from/ knotsBaromVisibWave heightAir tempDewpointWater temp
2018-Mar-29 15:28N 14°17' W 060°57'3 5.3
2018-Mar-29 14:58N 14°20' W 060°56'3 5.7
2018-Mar-29 14:30N 14°22' W 060°55'3 5.4
2018-Mar-29 14:00N 14°25' W 060°55'3 4.9
2018-Mar-29 13:29N 14°27' W 060°53'2 2.5
2018-Mar-29 12:53N 14°28' W 060°52'0 0.2
2018-Mar-29 12:30N 14°28' W 060°52'0 0.0
2018-Mar-29 12:00N 14°28' W 060°52'  
2018-Mar-26 18:48N 14°28' W 060°52'0 1.0
2018-Mar-26 18:29N 14°28' W 060°52'2 3.2
2018-Mar-26 18:00N 14°27' W 060°54'2 3.0
2018-Mar-26 17:30N 14°27' W 060°55'1 2.9
2018-Mar-26 17:00N 14°26' W 060°57'2 2.9
2018-Mar-26 16:29N 14°27' W 060°58'  

Dump ship's entire track history